sensor_id;sensor_type;location;lat;lon;timestamp;temperature;humidity
11965;DHT22;6042;41.326;19.826;2023-12-04T00:00:04;10.40;99.90
11965;DHT22;6042;41.326;19.826;2023-12-04T00:02:40;10.30;99.90
11965;DHT22;6042;41.326;19.826;2023-12-04T00:05:11;10.20;99.90
11965;DHT22;6042;41.326;19.826;2023-12-04T00:07:39;10.20;99.90
11965;DHT22;6042;41.326;19.826;2023-12-04T00:10:08;10.10;99.90
11965;DHT22;6042;41.326;19.826;2023-12-04T00:12:37;10.10;99.90
11965;DHT22;6042;41.326;19.826;2023-12-04T00:15:07;10.00;99.90
11965;DHT22;6042;41.326;19.826;2023-12-04T00:17:36;10.00;99.90
11965;DHT22;6042;41.326;19.826;2023-12-04T00:20:09;10.10;99.90
11965;DHT22;6042;41.326;19.826;2023-12-04T00:22:38;10.20;99.90
11965;DHT22;6042;41.326;19.826;2023-12-04T00:25:08;10.20;99.90
11965;DHT22;6042;41.326;19.826;2023-12-04T00:27:36;10.20;99.90
11965;DHT22;6042;41.326;19.826;2023-12-04T00:30:06;10.30;99.90
11965;DHT22;6042;41.326;19.826;2023-12-04T00:32:35;10.40;99.90
11965;DHT22;6042;41.326;19.826;2023-12-04T00:35:04;10.40;99.90
11965;DHT22;6042;41.326;19.826;2023-12-04T00:37:34;10.50;99.90
11965;DHT22;6042;41.326;19.826;2023-12-04T00:40:06;10.50;99.90
11965;DHT22;6042;41.326;19.826;2023-12-04T00:42:35;10.50;99.90
11965;DHT22;6042;41.326;19.826;2023-12-04T00:45:05;10.60;99.90
11965;DHT22;6042;41.326;19.826;2023-12-04T00:47:34;10.60;99.90
11965;DHT22;6042;41.326;19.826;2023-12-04T00:50:03;10.60;99.90
11965;DHT22;6042;41.326;19.826;2023-12-04T00:52:36;10.50;99.90
11965;DHT22;6042;41.326;19.826;2023-12-04T00:55:05;10.40;99.90
11965;DHT22;6042;41.326;19.826;2023-12-04T00:57:34;10.40;99.90
11965;DHT22;6042;41.326;19.826;2023-12-04T01:00:03;10.30;99.90
11965;DHT22;6042;41.326;19.826;2023-12-04T01:02:32;10.30;99.90
11965;DHT22;6042;41.326;19.826;2023-12-04T01:05:00;10.30;99.90
11965;DHT22;6042;41.326;19.826;2023-12-04T01:07:29;10.30;99.90
11965;DHT22;6042;41.326;19.826;2023-12-04T01:09:59;10.20;99.90
11965;DHT22;6042;41.326;19.826;2023-12-04T01:12:28;10.10;99.90
11965;DHT22;6042;41.326;19.826;2023-12-04T01:14:56;9.90;99.90
11965;DHT22;6042;41.326;19.826;2023-12-04T01:17:26;9.90;99.90
11965;DHT22;6042;41.326;19.826;2023-12-04T01:19:54;10.00;99.90
11965;DHT22;6042;41.326;19.826;2023-12-04T01:22:24;10.00;99.90
11965;DHT22;6042;41.326;19.826;2023-12-04T01:24:54;10.10;99.90
11965;DHT22;6042;41.326;19.826;2023-12-04T01:27:24;10.10;99.90
11965;DHT22;6042;41.326;19.826;2023-12-04T01:29:53;10.00;99.90
11965;DHT22;6042;41.326;19.826;2023-12-04T01:32:21;9.90;99.90
11965;DHT22;6042;41.326;19.826;2023-12-04T01:34:53;9.90;99.90
11965;DHT22;6042;41.326;19.826;2023-12-04T01:37:22;9.90;99.90
11965;DHT22;6042;41.326;19.826;2023-12-04T01:39:51;9.90;99.90
11965;DHT22;6042;41.326;19.826;2023-12-04T01:42:20;10.00;99.90
11965;DHT22;6042;41.326;19.826;2023-12-04T01:44:50;10.10;99.90
11965;DHT22;6042;41.326;19.826;2023-12-04T01:47:19;10.10;99.90
11965;DHT22;6042;41.326;19.826;2023-12-04T01:49:48;10.10;99.90
11965;DHT22;6042;41.326;19.826;2023-12-04T01:52:17;9.90;99.90
11965;DHT22;6042;41.326;19.826;2023-12-04T01:54:46;9.70;99.90
11965;DHT22;6042;41.326;19.826;2023-12-04T01:57:14;9.60;99.90
11965;DHT22;6042;41.326;19.826;2023-12-04T01:59:43;9.60;99.90
11965;DHT22;6042;41.326;19.826;2023-12-04T02:02:14;9.60;99.90
11965;DHT22;6042;41.326;19.826;2023-12-04T02:04:42;9.70;99.90
11965;DHT22;6042;41.326;19.826;2023-12-04T02:07:12;9.70;99.90
11965;DHT22;6042;41.326;19.826;2023-12-04T02:09:40;9.60;99.90
11965;DHT22;6042;41.326;19.826;2023-12-04T02:12:09;9.50;99.90
11965;DHT22;6042;41.326;19.826;2023-12-04T02:14:38;9.50;99.90
11965;DHT22;6042;41.326;19.826;2023-12-04T02:17:08;9.60;99.90
11965;DHT22;6042;41.326;19.826;2023-12-04T02:19:38;9.60;99.90
11965;DHT22;6042;41.326;19.826;2023-12-04T02:22:07;9.70;99.90
11965;DHT22;6042;41.326;19.826;2023-12-04T02:24:37;9.70;99.90
11965;DHT22;6042;41.326;19.826;2023-12-04T02:27:11;9.50;99.90
11965;DHT22;6042;41.326;19.826;2023-12-04T02:29:45;9.60;99.90
11965;DHT22;6042;41.326;19.826;2023-12-04T02:32:16;9.40;99.90
11965;DHT22;6042;41.326;19.826;2023-12-04T02:34:47;9.40;99.90
11965;DHT22;6042;41.326;19.826;2023-12-04T02:37:19;9.50;99.90
11965;DHT22;6042;41.326;19.826;2023-12-04T02:39:50;9.60;99.90
11965;DHT22;6042;41.326;19.826;2023-12-04T02:42:22;9.70;99.90
11965;DHT22;6042;41.326;19.826;2023-12-04T02:44:53;9.70;99.90
11965;DHT22;6042;41.326;19.826;2023-12-04T02:47:22;9.60;99.90
11965;DHT22;6042;41.326;19.826;2023-12-04T02:49:51;9.70;99.90
11965;DHT22;6042;41.326;19.826;2023-12-04T02:52:20;9.70;99.90
11965;DHT22;6042;41.326;19.826;2023-12-04T02:54:50;9.70;99.90
11965;DHT22;6042;41.326;19.826;2023-12-04T02:57:19;9.70;99.90
11965;DHT22;6042;41.326;19.826;2023-12-04T02:59:50;9.60;99.90
11965;DHT22;6042;41.326;19.826;2023-12-04T03:02:19;9.70;99.90
11965;DHT22;6042;41.326;19.826;2023-12-04T03:04:47;9.70;99.90
11965;DHT22;6042;41.326;19.826;2023-12-04T03:07:16;9.70;99.90
11965;DHT22;6042;41.326;19.826;2023-12-04T03:09:47;9.60;99.90
11965;DHT22;6042;41.326;19.826;2023-12-04T03:12:17;9.60;99.90
11965;DHT22;6042;41.326;19.826;2023-12-04T03:14:46;9.60;99.90
11965;DHT22;6042;41.326;19.826;2023-12-04T03:17:14;9.70;99.90
11965;DHT22;6042;41.326;19.826;2023-12-04T03:19:43;9.60;99.90
11965;DHT22;6042;41.326;19.826;2023-12-04T03:22:15;9.60;99.90
11965;DHT22;6042;41.326;19.826;2023-12-04T03:24:44;9.60;99.90
11965;DHT22;6042;41.326;19.826;2023-12-04T03:27:16;9.60;99.90
11965;DHT22;6042;41.326;19.826;2023-12-04T03:29:45;9.60;99.90
11965;DHT22;6042;41.326;19.826;2023-12-04T03:32:14;9.60;99.90
11965;DHT22;6042;41.326;19.826;2023-12-04T03:34:42;9.60;99.90
11965;DHT22;6042;41.326;19.826;2023-12-04T03:37:13;9.60;99.90
11965;DHT22;6042;41.326;19.826;2023-12-04T03:39:41;9.60;99.90
11965;DHT22;6042;41.326;19.826;2023-12-04T03:42:10;9.60;99.90
11965;DHT22;6042;41.326;19.826;2023-12-04T03:44:40;9.60;99.90
11965;DHT22;6042;41.326;19.826;2023-12-04T03:47:09;9.60;99.90
11965;DHT22;6042;41.326;19.826;2023-12-04T03:49:37;9.60;99.90
11965;DHT22;6042;41.326;19.826;2023-12-04T03:52:06;9.60;99.90
11965;DHT22;6042;41.326;19.826;2023-12-04T03:54:35;9.70;99.90
11965;DHT22;6042;41.326;19.826;2023-12-04T03:57:04;9.70;99.90
11965;DHT22;6042;41.326;19.826;2023-12-04T03:59:32;9.70;99.90
11965;DHT22;6042;41.326;19.826;2023-12-04T04:02:03;9.70;99.90
11965;DHT22;6042;41.326;19.826;2023-12-04T04:04:33;9.60;99.90
11965;DHT22;6042;41.326;19.826;2023-12-04T04:07:02;9.60;99.90
11965;DHT22;6042;41.326;19.826;2023-12-04T04:09:31;9.50;99.90
11965;DHT22;6042;41.326;19.826;2023-12-04T04:12:00;9.50;99.90
11965;DHT22;6042;41.326;19.826;2023-12-04T04:14:28;9.50;99.90
11965;DHT22;6042;41.326;19.826;2023-12-04T04:16:57;9.40;99.90
11965;DHT22;6042;41.326;19.826;2023-12-04T04:19:27;9.40;99.90
11965;DHT22;6042;41.326;19.826;2023-12-04T04:21:56;9.40;99.90
11965;DHT22;6042;41.326;19.826;2023-12-04T04:24:25;9.10;99.90
11965;DHT22;6042;41.326;19.826;2023-12-04T04:26:53;9.20;99.90
11965;DHT22;6042;41.326;19.826;2023-12-04T04:29:22;9.30;99.90
11965;DHT22;6042;41.326;19.826;2023-12-04T04:31:50;9.30;99.90
11965;DHT22;6042;41.326;19.826;2023-12-04T04:34:20;9.00;99.90
11965;DHT22;6042;41.326;19.826;2023-12-04T04:36:51;8.90;99.90
11965;DHT22;6042;41.326;19.826;2023-12-04T04:39:20;8.80;99.90
11965;DHT22;6042;41.326;19.826;2023-12-04T04:41:48;8.70;99.90
11965;DHT22;6042;41.326;19.826;2023-12-04T04:44:17;8.70;99.90
11965;DHT22;6042;41.326;19.826;2023-12-04T04:46:45;8.80;99.90
11965;DHT22;6042;41.326;19.826;2023-12-04T04:49:14;8.90;99.90
11965;DHT22;6042;41.326;19.826;2023-12-04T04:51:45;8.90;99.90
11965;DHT22;6042;41.326;19.826;2023-12-04T04:54:15;8.90;99.90
11965;DHT22;6042;41.326;19.826;2023-12-04T04:56:45;9.00;99.90
11965;DHT22;6042;41.326;19.826;2023-12-04T04:59:13;9.00;99.90
11965;DHT22;6042;41.326;19.826;2023-12-04T05:01:46;9.00;99.90
11965;DHT22;6042;41.326;19.826;2023-12-04T05:04:14;9.10;99.90
11965;DHT22;6042;41.326;19.826;2023-12-04T05:06:43;9.10;99.90
11965;DHT22;6042;41.326;19.826;2023-12-04T05:09:12;9.00;99.90
11965;DHT22;6042;41.326;19.826;2023-12-04T05:11:42;9.10;99.90
11965;DHT22;6042;41.326;19.826;2023-12-04T05:14:10;9.20;99.90
11965;DHT22;6042;41.326;19.826;2023-12-04T05:16:39;9.30;99.90
11965;DHT22;6042;41.326;19.826;2023-12-04T05:19:07;9.00;99.90
11965;DHT22;6042;41.326;19.826;2023-12-04T05:21:36;9.00;99.90
11965;DHT22;6042;41.326;19.826;2023-12-04T05:24:05;8.90;99.90
11965;DHT22;6042;41.326;19.826;2023-12-04T05:26:34;8.90;99.90
11965;DHT22;6042;41.326;19.826;2023-12-04T05:29:04;8.90;99.90
11965;DHT22;6042;41.326;19.826;2023-12-04T05:31:33;8.90;99.90
11965;DHT22;6042;41.326;19.826;2023-12-04T05:34:01;9.00;99.90
11965;DHT22;6042;41.326;19.826;2023-12-04T05:36:30;9.10;99.90
11965;DHT22;6042;41.326;19.826;2023-12-04T05:38:59;9.10;99.90
11965;DHT22;6042;41.326;19.826;2023-12-04T05:41:30;9.00;99.90
11965;DHT22;6042;41.326;19.826;2023-12-04T05:43:59;8.90;99.90
11965;DHT22;6042;41.326;19.826;2023-12-04T05:46:29;8.90;99.90
11965;DHT22;6042;41.326;19.826;2023-12-04T05:48:58;9.00;99.90
11965;DHT22;6042;41.326;19.826;2023-12-04T05:51:27;9.00;99.90
11965;DHT22;6042;41.326;19.826;2023-12-04T05:54:00;9.00;99.90
11965;DHT22;6042;41.326;19.826;2023-12-04T05:56:29;9.00;99.90
11965;DHT22;6042;41.326;19.826;2023-12-04T05:58:59;8.90;99.90
11965;DHT22;6042;41.326;19.826;2023-12-04T06:01:29;8.80;99.90
11965;DHT22;6042;41.326;19.826;2023-12-04T06:03:57;8.80;99.90
11965;DHT22;6042;41.326;19.826;2023-12-04T06:06:26;8.50;99.90
11965;DHT22;6042;41.326;19.826;2023-12-04T06:08:55;8.60;99.90
11965;DHT22;6042;41.326;19.826;2023-12-04T06:11:24;8.70;99.90
11965;DHT22;6042;41.326;19.826;2023-12-04T06:13:52;8.60;99.90
11965;DHT22;6042;41.326;19.826;2023-12-04T06:16:21;8.50;99.90
11965;DHT22;6042;41.326;19.826;2023-12-04T06:18:51;8.50;99.90
11965;DHT22;6042;41.326;19.826;2023-12-04T06:21:21;8.50;99.90
11965;DHT22;6042;41.326;19.826;2023-12-04T06:23:51;8.50;99.90
11965;DHT22;6042;41.326;19.826;2023-12-04T06:26:20;8.50;99.90
11965;DHT22;6042;41.326;19.826;2023-12-04T06:28:49;8.50;99.90
11965;DHT22;6042;41.326;19.826;2023-12-04T06:31:18;8.50;99.90
11965;DHT22;6042;41.326;19.826;2023-12-04T06:33:47;8.50;99.90
11965;DHT22;6042;41.326;19.826;2023-12-04T06:36:17;8.50;99.90
11965;DHT22;6042;41.326;19.826;2023-12-04T06:38:51;8.60;99.90
11965;DHT22;6042;41.326;19.826;2023-12-04T06:41:21;8.70;99.90
11965;DHT22;6042;41.326;19.826;2023-12-04T06:43:50;8.90;99.90
11965;DHT22;6042;41.326;19.826;2023-12-04T06:46:21;9.00;99.90
11965;DHT22;6042;41.326;19.826;2023-12-04T06:48:53;9.00;99.90
11965;DHT22;6042;41.326;19.826;2023-12-04T06:51:24;9.00;99.90
11965;DHT22;6042;41.326;19.826;2023-12-04T06:53:56;9.20;99.90
11965;DHT22;6042;41.326;19.826;2023-12-04T06:56:24;9.30;99.90
11965;DHT22;6042;41.326;19.826;2023-12-04T06:58:54;9.30;99.90
11965;DHT22;6042;41.326;19.826;2023-12-04T07:01:23;9.30;99.90
11965;DHT22;6042;41.326;19.826;2023-12-04T07:03:52;9.40;99.90
11965;DHT22;6042;41.326;19.826;2023-12-04T07:06:21;9.30;99.90
11965;DHT22;6042;41.326;19.826;2023-12-04T07:08:51;9.30;99.90
11965;DHT22;6042;41.326;19.826;2023-12-04T07:11:19;9.30;99.90
11965;DHT22;6042;41.326;19.826;2023-12-04T07:13:48;9.50;99.90
11965;DHT22;6042;41.326;19.826;2023-12-04T07:16:17;9.50;99.90
11965;DHT22;6042;41.326;19.826;2023-12-04T07:18:45;9.60;99.90
11965;DHT22;6042;41.326;19.826;2023-12-04T07:21:14;9.80;99.90
11965;DHT22;6042;41.326;19.826;2023-12-04T07:23:45;9.90;99.90
11965;DHT22;6042;41.326;19.826;2023-12-04T07:26:18;10.00;99.90
11965;DHT22;6042;41.326;19.826;2023-12-04T07:29:01;10.10;99.90
11965;DHT22;6042;41.326;19.826;2023-12-04T07:31:32;10.20;99.90
11965;DHT22;6042;41.326;19.826;2023-12-04T07:34:04;10.30;99.90
11965;DHT22;6042;41.326;19.826;2023-12-04T07:36:33;10.40;99.90
11965;DHT22;6042;41.326;19.826;2023-12-04T07:39:04;10.50;99.90
11965;DHT22;6042;41.326;19.826;2023-12-04T07:41:40;10.60;99.90
11965;DHT22;6042;41.326;19.826;2023-12-04T07:44:11;10.60;99.90
11965;DHT22;6042;41.326;19.826;2023-12-04T07:46:39;10.70;99.90
11965;DHT22;6042;41.326;19.826;2023-12-04T07:49:08;10.80;99.90
11965;DHT22;6042;41.326;19.826;2023-12-04T07:51:37;10.70;99.90
11965;DHT22;6042;41.326;19.826;2023-12-04T07:54:06;10.70;99.90
11965;DHT22;6042;41.326;19.826;2023-12-04T07:56:34;10.80;99.90
11965;DHT22;6042;41.326;19.826;2023-12-04T07:59:04;10.90;99.90
11965;DHT22;6042;41.326;19.826;2023-12-04T08:14:47;10.90;99.90
11965;DHT22;6042;41.326;19.826;2023-12-04T08:17:15;11.40;99.90
11965;DHT22;6042;41.326;19.826;2023-12-04T08:19:43;11.40;99.90
11965;DHT22;6042;41.326;19.826;2023-12-04T08:22:11;11.40;99.90
11965;DHT22;6042;41.326;19.826;2023-12-04T08:24:38;11.40;99.90
11965;DHT22;6042;41.326;19.826;2023-12-04T08:27:06;11.50;99.90
11965;DHT22;6042;41.326;19.826;2023-12-04T08:29:34;11.70;99.90
11965;DHT22;6042;41.326;19.826;2023-12-04T08:32:02;11.80;99.90
11965;DHT22;6042;41.326;19.826;2023-12-04T08:34:30;12.00;99.90
11965;DHT22;6042;41.326;19.826;2023-12-04T08:36:57;12.00;99.90
11965;DHT22;6042;41.326;19.826;2023-12-04T08:39:25;11.60;99.90
11965;DHT22;6042;41.326;19.826;2023-12-04T08:41:53;10.70;99.90
11965;DHT22;6042;41.326;19.826;2023-12-04T08:44:29;10.20;99.90
11965;DHT22;6042;41.326;19.826;2023-12-04T08:46:57;10.20;99.90
11965;DHT22;6042;41.326;19.826;2023-12-04T08:49:25;10.30;99.90
11965;DHT22;6042;41.326;19.826;2023-12-04T08:52:06;10.30;99.90
11965;DHT22;6042;41.326;19.826;2023-12-04T08:54:33;10.50;99.90
11965;DHT22;6042;41.326;19.826;2023-12-04T08:57:01;10.60;99.90
11965;DHT22;6042;41.326;19.826;2023-12-04T08:59:31;10.60;99.90
11965;DHT22;6042;41.326;19.826;2023-12-04T09:01:58;10.70;99.90
11965;DHT22;6042;41.326;19.826;2023-12-04T09:04:26;10.70;99.90
11965;DHT22;6042;41.326;19.826;2023-12-04T09:06:55;10.80;99.90
11965;DHT22;6042;41.326;19.826;2023-12-04T09:09:25;10.90;99.90
11965;DHT22;6042;41.326;19.826;2023-12-04T09:11:53;11.00;99.90
11965;DHT22;6042;41.326;19.826;2023-12-04T09:14:20;11.00;99.90
11965;DHT22;6042;41.326;19.826;2023-12-04T09:16:47;11.10;99.90
11965;DHT22;6042;41.326;19.826;2023-12-04T09:19:15;11.10;99.90
11965;DHT22;6042;41.326;19.826;2023-12-04T09:21:43;11.10;99.90
11965;DHT22;6042;41.326;19.826;2023-12-04T09:24:11;11.30;99.90
11965;DHT22;6042;41.326;19.826;2023-12-04T09:26:40;11.30;99.90
11965;DHT22;6042;41.326;19.826;2023-12-04T09:29:08;11.40;99.90
11965;DHT22;6042;41.326;19.826;2023-12-04T09:31:37;11.50;99.90
11965;DHT22;6042;41.326;19.826;2023-12-04T09:34:05;11.60;99.90
11965;DHT22;6042;41.326;19.826;2023-12-04T09:36:32;11.50;99.90
11965;DHT22;6042;41.326;19.826;2023-12-04T09:39:00;11.50;99.90
11965;DHT22;6042;41.326;19.826;2023-12-04T09:41:28;11.50;99.90
11965;DHT22;6042;41.326;19.826;2023-12-04T09:43:55;11.50;99.90
11965;DHT22;6042;41.326;19.826;2023-12-04T09:46:22;11.60;99.90
11965;DHT22;6042;41.326;19.826;2023-12-04T09:48:51;11.70;99.90
11965;DHT22;6042;41.326;19.826;2023-12-04T09:51:21;11.60;99.90
11965;DHT22;6042;41.326;19.826;2023-12-04T09:53:49;11.70;99.90
11965;DHT22;6042;41.326;19.826;2023-12-04T09:56:17;11.80;99.90
11965;DHT22;6042;41.326;19.826;2023-12-04T09:58:45;11.90;99.90
11965;DHT22;6042;41.326;19.826;2023-12-04T10:01:16;11.90;99.90
11965;DHT22;6042;41.326;19.826;2023-12-04T10:03:43;12.00;99.90
11965;DHT22;6042;41.326;19.826;2023-12-04T10:06:14;12.10;99.90
11965;DHT22;6042;41.326;19.826;2023-12-04T10:08:43;12.10;99.90
11965;DHT22;6042;41.326;19.826;2023-12-04T10:11:13;12.20;99.90
11965;DHT22;6042;41.326;19.826;2023-12-04T10:13:41;12.30;99.90
11965;DHT22;6042;41.326;19.826;2023-12-04T10:16:34;12.40;99.90
11965;DHT22;6042;41.326;19.826;2023-12-04T10:19:19;12.60;99.90
11965;DHT22;6042;41.326;19.826;2023-12-04T10:21:49;12.70;99.90
11965;DHT22;6042;41.326;19.826;2023-12-04T10:24:28;12.80;99.90
11965;DHT22;6042;41.326;19.826;2023-12-04T10:26:55;12.70;99.90
11965;DHT22;6042;41.326;19.826;2023-12-04T10:29:26;12.80;99.90
11965;DHT22;6042;41.326;19.826;2023-12-04T10:31:54;12.90;99.90
11965;DHT22;6042;41.326;19.826;2023-12-04T10:34:22;12.90;99.90
11965;DHT22;6042;41.326;19.826;2023-12-04T10:36:52;13.00;99.90
11965;DHT22;6042;41.326;19.826;2023-12-04T10:39:20;13.00;99.90
11965;DHT22;6042;41.326;19.826;2023-12-04T10:41:59;13.00;99.90
11965;DHT22;6042;41.326;19.826;2023-12-04T10:44:30;13.10;99.90
11965;DHT22;6042;41.326;19.826;2023-12-04T10:46:59;13.10;99.90
11965;DHT22;6042;41.326;19.826;2023-12-04T10:49:28;13.30;99.90
11965;DHT22;6042;41.326;19.826;2023-12-04T10:51:56;13.30;99.90
11965;DHT22;6042;41.326;19.826;2023-12-04T10:54:27;13.30;99.90
11965;DHT22;6042;41.326;19.826;2023-12-04T10:56:58;13.60;99.90
11965;DHT22;6042;41.326;19.826;2023-12-04T10:59:34;13.80;99.90
11965;DHT22;6042;41.326;19.826;2023-12-04T11:02:05;13.90;99.90
11965;DHT22;6042;41.326;19.826;2023-12-04T11:04:36;13.90;99.90
11965;DHT22;6042;41.326;19.826;2023-12-04T11:07:05;14.00;99.90
11965;DHT22;6042;41.326;19.826;2023-12-04T11:09:35;13.90;99.90
11965;DHT22;6042;41.326;19.826;2023-12-04T11:12:06;13.80;99.90
11965;DHT22;6042;41.326;19.826;2023-12-04T11:14:53;13.90;99.90
11965;DHT22;6042;41.326;19.826;2023-12-04T11:17:24;14.10;99.90
11965;DHT22;6042;41.326;19.826;2023-12-04T11:19:55;14.00;99.90
11965;DHT22;6042;41.326;19.826;2023-12-04T11:22:25;14.00;99.90
11965;DHT22;6042;41.326;19.826;2023-12-04T11:24:53;14.10;99.90
11965;DHT22;6042;41.326;19.826;2023-12-04T11:27:23;14.10;99.90
11965;DHT22;6042;41.326;19.826;2023-12-04T11:29:52;14.30;99.90
11965;DHT22;6042;41.326;19.826;2023-12-04T11:32:19;14.50;99.90
11965;DHT22;6042;41.326;19.826;2023-12-04T11:34:50;14.40;99.90
11965;DHT22;6042;41.326;19.826;2023-12-04T11:37:19;14.50;99.90
11965;DHT22;6042;41.326;19.826;2023-12-04T11:39:47;14.60;99.90
11965;DHT22;6042;41.326;19.826;2023-12-04T11:42:19;14.60;99.90
11965;DHT22;6042;41.326;19.826;2023-12-04T11:44:48;14.70;99.90
11965;DHT22;6042;41.326;19.826;2023-12-04T11:47:16;14.70;99.90
11965;DHT22;6042;41.326;19.826;2023-12-04T11:49:45;14.80;99.90
11965;DHT22;6042;41.326;19.826;2023-12-04T11:52:12;14.80;99.90
11965;DHT22;6042;41.326;19.826;2023-12-04T11:54:59;14.80;99.90
11965;DHT22;6042;41.326;19.826;2023-12-04T11:57:32;14.80;99.90
11965;DHT22;6042;41.326;19.826;2023-12-04T12:00:12;14.90;99.90
11965;DHT22;6042;41.326;19.826;2023-12-04T12:02:48;15.00;99.90
11965;DHT22;6042;41.326;19.826;2023-12-04T12:05:49;14.90;99.90
11965;DHT22;6042;41.326;19.826;2023-12-04T12:08:17;14.90;99.90
11965;DHT22;6042;41.326;19.826;2023-12-04T12:10:45;14.90;99.90
11965;DHT22;6042;41.326;19.826;2023-12-04T12:13:13;14.80;99.90
11965;DHT22;6042;41.326;19.826;2023-12-04T12:15:42;14.90;99.90
11965;DHT22;6042;41.326;19.826;2023-12-04T12:18:10;14.80;99.90
11965;DHT22;6042;41.326;19.826;2023-12-04T12:20:38;14.80;99.90
11965;DHT22;6042;41.326;19.826;2023-12-04T12:23:05;14.90;99.90
11965;DHT22;6042;41.326;19.826;2023-12-04T12:25:33;14.80;99.90
11965;DHT22;6042;41.326;19.826;2023-12-04T12:28:02;14.70;99.90
11965;DHT22;6042;41.326;19.826;2023-12-04T12:30:30;14.70;99.90
11965;DHT22;6042;41.326;19.826;2023-12-04T12:32:57;14.60;99.90
11965;DHT22;6042;41.326;19.826;2023-12-04T12:35:25;14.50;99.90
11965;DHT22;6042;41.326;19.826;2023-12-04T12:37:55;14.50;99.90
11965;DHT22;6042;41.326;19.826;2023-12-04T12:40:22;14.50;99.90
11965;DHT22;6042;41.326;19.826;2023-12-04T12:42:50;14.30;99.90
11965;DHT22;6042;41.326;19.826;2023-12-04T12:45:18;14.10;99.90
11965;DHT22;6042;41.326;19.826;2023-12-04T12:47:45;14.00;99.90
11965;DHT22;6042;41.326;19.826;2023-12-04T12:50:14;13.90;99.90
11965;DHT22;6042;41.326;19.826;2023-12-04T12:52:43;13.80;99.90
11965;DHT22;6042;41.326;19.826;2023-12-04T12:55:11;13.70;99.90
11965;DHT22;6042;41.326;19.826;2023-12-04T12:57:38;13.70;99.90
11965;DHT22;6042;41.326;19.826;2023-12-04T13:00:07;13.60;99.90
11965;DHT22;6042;41.326;19.826;2023-12-04T13:02:36;13.50;99.90
11965;DHT22;6042;41.326;19.826;2023-12-04T13:05:05;13.50;99.90
11965;DHT22;6042;41.326;19.826;2023-12-04T13:07:34;13.50;99.90
11965;DHT22;6042;41.326;19.826;2023-12-04T13:10:02;13.50;99.90
11965;DHT22;6042;41.326;19.826;2023-12-04T13:12:32;13.50;99.90
11965;DHT22;6042;41.326;19.826;2023-12-04T13:14:59;13.40;99.90
11965;DHT22;6042;41.326;19.826;2023-12-04T13:17:27;13.30;99.90
11965;DHT22;6042;41.326;19.826;2023-12-04T13:19:55;13.30;99.90
11965;DHT22;6042;41.326;19.826;2023-12-04T13:22:22;13.30;99.90
11965;DHT22;6042;41.326;19.826;2023-12-04T13:24:50;13.40;99.90
11965;DHT22;6042;41.326;19.826;2023-12-04T13:27:18;13.40;99.90
11965;DHT22;6042;41.326;19.826;2023-12-04T13:29:45;13.50;99.90
11965;DHT22;6042;41.326;19.826;2023-12-04T13:32:16;13.50;99.90
11965;DHT22;6042;41.326;19.826;2023-12-04T13:34:43;13.30;99.90
11965;DHT22;6042;41.326;19.826;2023-12-04T13:37:11;13.30;99.90
11965;DHT22;6042;41.326;19.826;2023-12-04T13:39:38;13.40;99.90
11965;DHT22;6042;41.326;19.826;2023-12-04T13:42:16;13.40;99.90
11965;DHT22;6042;41.326;19.826;2023-12-04T13:45:03;13.40;99.90
11965;DHT22;6042;41.326;19.826;2023-12-04T13:47:31;13.30;99.90
11965;DHT22;6042;41.326;19.826;2023-12-04T13:50:01;13.40;99.90
11965;DHT22;6042;41.326;19.826;2023-12-04T13:52:28;13.40;99.90
11965;DHT22;6042;41.326;19.826;2023-12-04T13:55:00;13.30;99.90
11965;DHT22;6042;41.326;19.826;2023-12-04T13:57:27;13.20;99.90
11965;DHT22;6042;41.326;19.826;2023-12-04T14:00:00;13.00;99.90
11965;DHT22;6042;41.326;19.826;2023-12-04T14:02:30;12.90;99.90
11965;DHT22;6042;41.326;19.826;2023-12-04T14:04:58;12.90;99.90
11965;DHT22;6042;41.326;19.826;2023-12-04T14:07:26;12.80;99.90
11965;DHT22;6042;41.326;19.826;2023-12-04T14:09:54;12.80;99.90
11965;DHT22;6042;41.326;19.826;2023-12-04T14:12:21;12.70;99.90
11965;DHT22;6042;41.326;19.826;2023-12-04T14:14:49;12.70;99.90
11965;DHT22;6042;41.326;19.826;2023-12-04T14:17:17;12.70;99.90
11965;DHT22;6042;41.326;19.826;2023-12-04T14:19:45;12.70;99.90
11965;DHT22;6042;41.326;19.826;2023-12-04T14:22:12;12.70;99.90
11965;DHT22;6042;41.326;19.826;2023-12-04T14:24:39;12.60;99.90
11965;DHT22;6042;41.326;19.826;2023-12-04T14:27:07;12.60;99.90
11965;DHT22;6042;41.326;19.826;2023-12-04T14:29:34;12.50;99.90
11965;DHT22;6042;41.326;19.826;2023-12-04T14:32:01;12.50;99.90
11965;DHT22;6042;41.326;19.826;2023-12-04T14:34:29;12.40;99.90
11965;DHT22;6042;41.326;19.826;2023-12-04T14:36:57;12.30;99.90
11965;DHT22;6042;41.326;19.826;2023-12-04T14:39:25;12.30;99.90
11965;DHT22;6042;41.326;19.826;2023-12-04T14:41:52;12.20;99.90
11965;DHT22;6042;41.326;19.826;2023-12-04T14:44:19;12.20;99.90
11965;DHT22;6042;41.326;19.826;2023-12-04T14:46:46;12.10;99.90
11965;DHT22;6042;41.326;19.826;2023-12-04T14:49:14;12.00;99.90
11965;DHT22;6042;41.326;19.826;2023-12-04T14:51:42;11.90;99.90
11965;DHT22;6042;41.326;19.826;2023-12-04T14:54:16;11.80;99.90
11965;DHT22;6042;41.326;19.826;2023-12-04T14:56:49;11.80;99.90
11965;DHT22;6042;41.326;19.826;2023-12-04T14:59:31;11.80;99.90
11965;DHT22;6042;41.326;19.826;2023-12-04T15:02:23;11.70;99.90
11965;DHT22;6042;41.326;19.826;2023-12-04T15:05:11;11.50;99.90
11965;DHT22;6042;41.326;19.826;2023-12-04T15:08:19;11.50;99.90
11965;DHT22;6042;41.326;19.826;2023-12-04T15:11:07;11.60;99.90
11965;DHT22;6042;41.326;19.826;2023-12-04T15:14:11;11.50;99.90
11965;DHT22;6042;41.326;19.826;2023-12-04T15:16:56;11.40;99.90
11965;DHT22;6042;41.326;19.826;2023-12-04T15:19:40;11.30;99.90
11965;DHT22;6042;41.326;19.826;2023-12-04T15:22:23;11.30;99.90
11965;DHT22;6042;41.326;19.826;2023-12-04T15:24:51;11.20;99.90
11965;DHT22;6042;41.326;19.826;2023-12-04T15:27:18;11.10;99.90
11965;DHT22;6042;41.326;19.826;2023-12-04T15:29:46;11.10;99.90
11965;DHT22;6042;41.326;19.826;2023-12-04T15:32:13;11.00;99.90
11965;DHT22;6042;41.326;19.826;2023-12-04T15:34:40;11.00;99.90
11965;DHT22;6042;41.326;19.826;2023-12-04T15:37:10;11.00;99.90
11965;DHT22;6042;41.326;19.826;2023-12-04T15:39:38;10.90;99.90
11965;DHT22;6042;41.326;19.826;2023-12-04T15:42:06;10.90;99.90
11965;DHT22;6042;41.326;19.826;2023-12-04T15:44:37;10.80;99.90
11965;DHT22;6042;41.326;19.826;2023-12-04T15:47:04;10.80;99.90
11965;DHT22;6042;41.326;19.826;2023-12-04T15:49:31;10.80;99.90
11965;DHT22;6042;41.326;19.826;2023-12-04T15:52:01;10.70;99.90
11965;DHT22;6042;41.326;19.826;2023-12-04T15:54:28;10.70;99.90
11965;DHT22;6042;41.326;19.826;2023-12-04T15:56:59;10.60;99.90
11965;DHT22;6042;41.326;19.826;2023-12-04T15:59:27;10.60;99.90
11965;DHT22;6042;41.326;19.826;2023-12-04T16:01:55;10.60;99.90
11965;DHT22;6042;41.326;19.826;2023-12-04T16:04:22;10.50;99.90
11965;DHT22;6042;41.326;19.826;2023-12-04T16:06:50;10.50;99.90